sensor_id;sensor_type;location;lat;lon;timestamp;P1;durP1;ratioP1;P2;durP2;ratioP2
11039;SDS011;5573;49.592;8.662;2023-02-18T00:00:12;282.20;;;266.60;;
11039;SDS011;5573;49.592;8.662;2023-02-18T00:02:43;287.67;;;272.00;;
11039;SDS011;5573;49.592;8.662;2023-02-18T00:05:11;280.23;;;264.98;;
11039;SDS011;5573;49.592;8.662;2023-02-18T00:07:40;270.40;;;255.38;;
11039;SDS011;5573;49.592;8.662;2023-02-18T00:10:10;277.88;;;262.08;;
11039;SDS011;5573;49.592;8.662;2023-02-18T00:12:39;274.40;;;259.02;;
11039;SDS011;5573;49.592;8.662;2023-02-18T00:15:09;278.02;;;262.45;;
11039;SDS011;5573;49.592;8.662;2023-02-18T00:17:37;288.52;;;272.50;;
11039;SDS011;5573;49.592;8.662;2023-02-18T00:20:05;274.17;;;259.08;;
11039;SDS011;5573;49.592;8.662;2023-02-18T00:22:34;281.73;;;265.73;;
11039;SDS011;5573;49.592;8.662;2023-02-18T00:25:02;275.20;;;259.83;;
11039;SDS011;5573;49.592;8.662;2023-02-18T00:27:30;288.63;;;272.73;;
11039;SDS011;5573;49.592;8.662;2023-02-18T00:29:59;292.58;;;276.15;;
11039;SDS011;5573;49.592;8.662;2023-02-18T00:32:30;259.83;;;245.65;;
11039;SDS011;5573;49.592;8.662;2023-02-18T00:34:59;302.55;;;285.70;;
11039;SDS011;5573;49.592;8.662;2023-02-18T00:37:27;297.83;;;280.85;;
11039;SDS011;5573;49.592;8.662;2023-02-18T00:39:55;286.98;;;271.27;;
11039;SDS011;5573;49.592;8.662;2023-02-18T00:42:23;285.52;;;269.58;;
11039;SDS011;5573;49.592;8.662;2023-02-18T00:44:52;301.48;;;284.55;;
11039;SDS011;5573;49.592;8.662;2023-02-18T00:47:20;272.42;;;257.10;;
11039;SDS011;5573;49.592;8.662;2023-02-18T00:49:49;286.35;;;270.20;;
11039;SDS011;5573;49.592;8.662;2023-02-18T00:52:16;288.60;;;272.80;;
11039;SDS011;5573;49.592;8.662;2023-02-18T00:54:44;281.13;;;265.73;;
11039;SDS011;5573;49.592;8.662;2023-02-18T00:57:12;279.27;;;263.70;;
11039;SDS011;5573;49.592;8.662;2023-02-18T00:59:40;286.85;;;270.90;;
11039;SDS011;5573;49.592;8.662;2023-02-18T01:02:07;288.73;;;272.55;;
11039;SDS011;5573;49.592;8.662;2023-02-18T01:04:35;287.15;;;271.08;;
11039;SDS011;5573;49.592;8.662;2023-02-18T01:07:04;297.35;;;280.80;;
11039;SDS011;5573;49.592;8.662;2023-02-18T01:09:32;277.20;;;261.73;;
11039;SDS011;5573;49.592;8.662;2023-02-18T01:12:00;270.70;;;255.57;;
11039;SDS011;5573;49.592;8.662;2023-02-18T01:14:27;283.20;;;267.80;;
11039;SDS011;5573;49.592;8.662;2023-02-18T01:16:55;287.92;;;271.95;;
11039;SDS011;5573;49.592;8.662;2023-02-18T01:19:23;269.02;;;253.88;;
11039;SDS011;5573;49.592;8.662;2023-02-18T01:21:51;286.33;;;270.73;;
11039;SDS011;5573;49.592;8.662;2023-02-18T01:24:20;301.58;;;284.63;;
11039;SDS011;5573;49.592;8.662;2023-02-18T01:26:48;303.67;;;286.80;;
11039;SDS011;5573;49.592;8.662;2023-02-18T01:29:16;303.83;;;286.92;;
11039;SDS011;5573;49.592;8.662;2023-02-18T01:31:43;292.35;;;275.75;;
11039;SDS011;5573;49.592;8.662;2023-02-18T01:34:13;311.17;;;293.25;;
11039;SDS011;5573;49.592;8.662;2023-02-18T01:36:41;299.70;;;282.85;;
11039;SDS011;5573;49.592;8.662;2023-02-18T01:39:09;307.42;;;290.23;;
11039;SDS011;5573;49.592;8.662;2023-02-18T01:41:38;297.70;;;281.15;;
11039;SDS011;5573;49.592;8.662;2023-02-18T01:44:09;291.73;;;275.60;;
11039;SDS011;5573;49.592;8.662;2023-02-18T01:46:39;303.67;;;286.83;;
11039;SDS011;5573;49.592;8.662;2023-02-18T01:49:06;295.95;;;279.58;;
11039;SDS011;5573;49.592;8.662;2023-02-18T01:51:38;302.25;;;285.50;;
11039;SDS011;5573;49.592;8.662;2023-02-18T01:54:08;295.70;;;279.35;;
11039;SDS011;5573;49.592;8.662;2023-02-18T01:56:43;265.33;;;250.55;;
11039;SDS011;5573;49.592;8.662;2023-02-18T01:59:16;296.58;;;280.13;;
11039;SDS011;5573;49.592;8.662;2023-02-18T02:01:47;317.60;;;299.83;;
11039;SDS011;5573;49.592;8.662;2023-02-18T02:04:15;288.35;;;272.40;;
11039;SDS011;5573;49.592;8.662;2023-02-18T02:06:44;281.80;;;266.17;;
11039;SDS011;5573;49.592;8.662;2023-02-18T02:09:12;293.88;;;277.85;;
11039;SDS011;5573;49.592;8.662;2023-02-18T02:12:05;289.25;;;273.55;;
11039;SDS011;5573;49.592;8.662;2023-02-18T02:14:48;289.17;;;273.35;;
11039;SDS011;5573;49.592;8.662;2023-02-18T02:17:31;281.20;;;265.50;;
11039;SDS011;5573;49.592;8.662;2023-02-18T02:26:52;272.80;;;257.45;;
11039;SDS011;5573;49.592;8.662;2023-02-18T02:32:44;266.45;;;251.73;;
11039;SDS011;5573;49.592;8.662;2023-02-18T02:35:35;283.77;;;267.88;;
11039;SDS011;5573;49.592;8.662;2023-02-18T02:38:06;273.40;;;258.00;;
11039;SDS011;5573;49.592;8.662;2023-02-18T02:40:41;282.25;;;266.48;;
11039;SDS011;5573;49.592;8.662;2023-02-18T02:43:15;288.52;;;272.52;;
11039;SDS011;5573;49.592;8.662;2023-02-18T02:45:49;301.88;;;284.98;;
11039;SDS011;5573;49.592;8.662;2023-02-18T02:48:25;285.48;;;269.40;;
11039;SDS011;5573;49.592;8.662;2023-02-18T02:51:03;270.77;;;255.80;;
11039;SDS011;5573;49.592;8.662;2023-02-18T02:53:35;294.30;;;278.05;;
11039;SDS011;5573;49.592;8.662;2023-02-18T02:56:08;292.60;;;276.27;;
11039;SDS011;5573;49.592;8.662;2023-02-18T02:58:39;290.02;;;273.67;;
11039;SDS011;5573;49.592;8.662;2023-02-18T03:01:14;292.88;;;276.77;;
11039;SDS011;5573;49.592;8.662;2023-02-18T03:03:57;297.52;;;281.08;;
11039;SDS011;5573;49.592;8.662;2023-02-18T03:06:51;280.83;;;265.25;;
11039;SDS011;5573;49.592;8.662;2023-02-18T03:09:31;287.33;;;271.45;;
11039;SDS011;5573;49.592;8.662;2023-02-18T03:12:09;286.33;;;270.80;;
11039;SDS011;5573;49.592;8.662;2023-02-18T03:14:43;295.95;;;279.65;;
11039;SDS011;5573;49.592;8.662;2023-02-18T03:17:21;297.45;;;280.80;;
11039;SDS011;5573;49.592;8.662;2023-02-18T03:19:53;292.70;;;276.83;;
11039;SDS011;5573;49.592;8.662;2023-02-18T03:22:26;285.70;;;269.92;;
11039;SDS011;5573;49.592;8.662;2023-02-18T03:24:59;292.27;;;275.92;;
11039;SDS011;5573;49.592;8.662;2023-02-18T03:27:31;295.90;;;279.50;;
11039;SDS011;5573;49.592;8.662;2023-02-18T03:30:02;301.02;;;284.38;;
11039;SDS011;5573;49.592;8.662;2023-02-18T03:32:34;293.00;;;276.95;;
11039;SDS011;5573;49.592;8.662;2023-02-18T03:35:04;277.60;;;262.45;;
11039;SDS011;5573;49.592;8.662;2023-02-18T03:37:36;270.65;;;255.80;;
11039;SDS011;5573;49.592;8.662;2023-02-18T03:40:09;291.10;;;275.05;;
11039;SDS011;5573;49.592;8.662;2023-02-18T03:42:38;280.73;;;265.42;;
11039;SDS011;5573;49.592;8.662;2023-02-18T03:45:06;273.27;;;257.90;;
11039;SDS011;5573;49.592;8.662;2023-02-18T03:47:34;298.42;;;281.55;;
11039;SDS011;5573;49.592;8.662;2023-02-18T03:50:02;287.42;;;271.40;;
11039;SDS011;5573;49.592;8.662;2023-02-18T03:52:31;275.30;;;260.60;;
11039;SDS011;5573;49.592;8.662;2023-02-18T03:55:03;281.00;;;265.42;;
11039;SDS011;5573;49.592;8.662;2023-02-18T03:57:31;291.20;;;275.02;;
11039;SDS011;5573;49.592;8.662;2023-02-18T03:59:59;286.52;;;270.50;;
11039;SDS011;5573;49.592;8.662;2023-02-18T04:02:38;283.25;;;267.40;;
11039;SDS011;5573;49.592;8.662;2023-02-18T04:05:06;284.20;;;268.60;;
11039;SDS011;5573;49.592;8.662;2023-02-18T04:07:34;294.60;;;278.02;;
11039;SDS011;5573;49.592;8.662;2023-02-18T04:10:04;279.35;;;263.80;;
11039;SDS011;5573;49.592;8.662;2023-02-18T04:12:33;283.63;;;267.90;;
11039;SDS011;5573;49.592;8.662;2023-02-18T04:15:01;281.55;;;265.45;;
11039;SDS011;5573;49.592;8.662;2023-02-18T04:17:29;292.38;;;276.15;;
11039;SDS011;5573;49.592;8.662;2023-02-18T04:19:56;295.33;;;278.73;;
11039;SDS011;5573;49.592;8.662;2023-02-18T04:22:24;281.10;;;265.65;;
11039;SDS011;5573;49.592;8.662;2023-02-18T04:24:52;289.25;;;273.00;;
11039;SDS011;5573;49.592;8.662;2023-02-18T04:27:21;290.27;;;274.38;;
11039;SDS011;5573;49.592;8.662;2023-02-18T04:29:49;291.42;;;274.98;;
11039;SDS011;5573;49.592;8.662;2023-02-18T04:32:17;298.48;;;281.77;;
11039;SDS011;5573;49.592;8.662;2023-02-18T04:34:44;277.45;;;261.98;;
11039;SDS011;5573;49.592;8.662;2023-02-18T04:37:12;289.27;;;273.58;;
11039;SDS011;5573;49.592;8.662;2023-02-18T04:39:40;309.75;;;292.50;;
11039;SDS011;5573;49.592;8.662;2023-02-18T04:42:07;302.50;;;285.75;;
11039;SDS011;5573;49.592;8.662;2023-02-18T04:44:37;301.80;;;284.77;;
11039;SDS011;5573;49.592;8.662;2023-02-18T04:47:05;317.70;;;299.80;;
11039;SDS011;5573;49.592;8.662;2023-02-18T04:49:33;287.40;;;271.50;;
11039;SDS011;5573;49.592;8.662;2023-02-18T04:52:01;299.70;;;282.90;;
11039;SDS011;5573;49.592;8.662;2023-02-18T04:54:29;305.05;;;288.00;;
11039;SDS011;5573;49.592;8.662;2023-02-18T04:56:57;314.02;;;296.13;;
11039;SDS011;5573;49.592;8.662;2023-02-18T04:59:24;298.08;;;281.17;;
11039;SDS011;5573;49.592;8.662;2023-02-18T05:01:53;294.23;;;277.63;;
11039;SDS011;5573;49.592;8.662;2023-02-18T05:04:21;307.70;;;290.45;;
11039;SDS011;5573;49.592;8.662;2023-02-18T05:06:49;290.10;;;273.58;;
11039;SDS011;5573;49.592;8.662;2023-02-18T05:09:17;313.48;;;295.92;;
11039;SDS011;5573;49.592;8.662;2023-02-18T05:11:45;309.75;;;292.48;;
11039;SDS011;5573;49.592;8.662;2023-02-18T05:14:14;294.73;;;278.10;;
11039;SDS011;5573;49.592;8.662;2023-02-18T05:16:41;326.15;;;308.13;;
11039;SDS011;5573;49.592;8.662;2023-02-18T05:19:10;295.45;;;279.23;;
11039;SDS011;5573;49.592;8.662;2023-02-18T05:21:40;305.10;;;288.50;;
11039;SDS011;5573;49.592;8.662;2023-02-18T05:24:08;288.63;;;272.55;;
11039;SDS011;5573;49.592;8.662;2023-02-18T05:26:36;299.90;;;283.73;;
11039;SDS011;5573;49.592;8.662;2023-02-18T05:29:04;299.45;;;283.08;;
11039;SDS011;5573;49.592;8.662;2023-02-18T05:31:32;297.00;;;280.75;;
11039;SDS011;5573;49.592;8.662;2023-02-18T05:34:00;284.30;;;268.50;;
11039;SDS011;5573;49.592;8.662;2023-02-18T05:36:29;286.17;;;270.38;;
11039;SDS011;5573;49.592;8.662;2023-02-18T05:38:56;285.90;;;270.05;;
11039;SDS011;5573;49.592;8.662;2023-02-18T05:41:24;298.27;;;281.92;;
11039;SDS011;5573;49.592;8.662;2023-02-18T05:43:52;291.02;;;275.05;;
11039;SDS011;5573;49.592;8.662;2023-02-18T05:46:37;262.55;;;248.02;;
11039;SDS011;5573;49.592;8.662;2023-02-18T05:49:05;281.30;;;265.80;;
11039;SDS011;5573;49.592;8.662;2023-02-18T05:51:34;286.58;;;270.70;;
11039;SDS011;5573;49.592;8.662;2023-02-18T05:54:02;280.77;;;264.95;;
11039;SDS011;5573;49.592;8.662;2023-02-18T05:56:30;279.95;;;264.77;;
11039;SDS011;5573;49.592;8.662;2023-02-18T05:58:58;283.10;;;267.27;;
11039;SDS011;5573;49.592;8.662;2023-02-18T06:01:25;279.20;;;263.67;;
11039;SDS011;5573;49.592;8.662;2023-02-18T06:03:53;262.52;;;247.95;;
11039;SDS011;5573;49.592;8.662;2023-02-18T06:06:21;300.95;;;284.60;;
11039;SDS011;5573;49.592;8.662;2023-02-18T06:08:50;289.90;;;273.98;;
11039;SDS011;5573;49.592;8.662;2023-02-18T06:11:17;278.00;;;263.00;;
11039;SDS011;5573;49.592;8.662;2023-02-18T06:13:48;270.77;;;255.90;;
11039;SDS011;5573;49.592;8.662;2023-02-18T06:16:16;274.67;;;259.80;;
11039;SDS011;5573;49.592;8.662;2023-02-18T06:18:44;281.35;;;265.83;;
11039;SDS011;5573;49.592;8.662;2023-02-18T06:21:11;280.42;;;264.98;;
11039;SDS011;5573;49.592;8.662;2023-02-18T06:23:39;289.00;;;273.08;;
11039;SDS011;5573;49.592;8.662;2023-02-18T06:26:08;275.30;;;260.23;;
11039;SDS011;5573;49.592;8.662;2023-02-18T06:28:36;253.90;;;239.90;;
11039;SDS011;5573;49.592;8.662;2023-02-18T06:31:04;290.58;;;274.98;;
11039;SDS011;5573;49.592;8.662;2023-02-18T06:33:32;280.83;;;265.58;;
11039;SDS011;5573;49.592;8.662;2023-02-18T06:36:00;289.10;;;273.38;;
11039;SDS011;5573;49.592;8.662;2023-02-18T06:38:32;286.27;;;270.73;;
11039;SDS011;5573;49.592;8.662;2023-02-18T06:41:01;280.25;;;264.95;;
11039;SDS011;5573;49.592;8.662;2023-02-18T06:43:30;266.25;;;251.60;;
11039;SDS011;5573;49.592;8.662;2023-02-18T06:45:58;274.17;;;258.98;;
11039;SDS011;5573;49.592;8.662;2023-02-18T06:48:26;270.33;;;255.00;;
11039;SDS011;5573;49.592;8.662;2023-02-18T06:50:55;280.20;;;264.55;;
11039;SDS011;5573;49.592;8.662;2023-02-18T06:53:23;274.35;;;259.05;;
11039;SDS011;5573;49.592;8.662;2023-02-18T06:55:51;292.38;;;276.42;;
11039;SDS011;5573;49.592;8.662;2023-02-18T06:58:18;291.48;;;275.58;;
11039;SDS011;5573;49.592;8.662;2023-02-18T07:00:47;286.08;;;270.08;;
11039;SDS011;5573;49.592;8.662;2023-02-18T07:03:15;260.83;;;246.32;;
11039;SDS011;5573;49.592;8.662;2023-02-18T07:05:43;280.58;;;265.27;;
11039;SDS011;5573;49.592;8.662;2023-02-18T07:08:11;293.60;;;277.13;;
11039;SDS011;5573;49.592;8.662;2023-02-18T07:10:38;281.13;;;265.75;;
11039;SDS011;5573;49.592;8.662;2023-02-18T07:13:06;286.80;;;270.90;;
11039;SDS011;5573;49.592;8.662;2023-02-18T07:15:34;268.50;;;253.48;;
11039;SDS011;5573;49.592;8.662;2023-02-18T07:18:03;274.00;;;259.08;;
11039;SDS011;5573;49.592;8.662;2023-02-18T07:20:31;288.45;;;272.27;;
11039;SDS011;5573;49.592;8.662;2023-02-18T07:22:59;285.42;;;269.80;;
11039;SDS011;5573;49.592;8.662;2023-02-18T07:25:26;303.73;;;287.25;;
11039;SDS011;5573;49.592;8.662;2023-02-18T07:27:54;277.45;;;262.02;;
11039;SDS011;5573;49.592;8.662;2023-02-18T07:30:22;272.98;;;258.05;;
11039;SDS011;5573;49.592;8.662;2023-02-18T07:32:50;275.98;;;260.55;;
11039;SDS011;5573;49.592;8.662;2023-02-18T07:35:19;291.20;;;275.00;;
11039;SDS011;5573;49.592;8.662;2023-02-18T07:37:47;266.38;;;251.52;;
11039;SDS011;5573;49.592;8.662;2023-02-18T07:40:17;275.85;;;260.52;;
11039;SDS011;5573;49.592;8.662;2023-02-18T07:42:47;276.88;;;261.63;;
11039;SDS011;5573;49.592;8.662;2023-02-18T07:45:15;272.70;;;257.73;;
11039;SDS011;5573;49.592;8.662;2023-02-18T07:47:42;274.23;;;259.08;;
11039;SDS011;5573;49.592;8.662;2023-02-18T07:50:10;272.98;;;258.02;;
11039;SDS011;5573;49.592;8.662;2023-02-18T07:52:40;280.50;;;264.88;;
11039;SDS011;5573;49.592;8.662;2023-02-18T07:55:08;303.70;;;286.63;;
11039;SDS011;5573;49.592;8.662;2023-02-18T07:57:35;291.48;;;274.95;;
11039;SDS011;5573;49.592;8.662;2023-02-18T08:00:22;290.52;;;274.33;;
11039;SDS011;5573;49.592;8.662;2023-02-18T08:02:50;281.80;;;265.92;;
11039;SDS011;5573;49.592;8.662;2023-02-18T08:05:18;285.38;;;269.67;;
11039;SDS011;5573;49.592;8.662;2023-02-18T08:07:47;291.95;;;275.73;;
11039;SDS011;5573;49.592;8.662;2023-02-18T08:10:15;279.67;;;264.23;;
11039;SDS011;5573;49.592;8.662;2023-02-18T08:12:43;281.52;;;265.98;;
11039;SDS011;5573;49.592;8.662;2023-02-18T08:15:11;296.25;;;279.08;;
11039;SDS011;5573;49.592;8.662;2023-02-18T08:17:39;287.00;;;271.02;;
11039;SDS011;5573;49.592;8.662;2023-02-18T08:20:07;283.80;;;268.13;;
11039;SDS011;5573;49.592;8.662;2023-02-18T08:22:35;291.77;;;275.90;;
11039;SDS011;5573;49.592;8.662;2023-02-18T08:25:05;298.10;;;281.48;;
11039;SDS011;5573;49.592;8.662;2023-02-18T08:27:37;285.80;;;270.20;;
11039;SDS011;5573;49.592;8.662;2023-02-18T08:30:05;291.00;;;275.20;;
11039;SDS011;5573;49.592;8.662;2023-02-18T08:32:34;300.95;;;284.13;;
11039;SDS011;5573;49.592;8.662;2023-02-18T08:35:01;280.60;;;265.25;;
11039;SDS011;5573;49.592;8.662;2023-02-18T08:37:29;272.17;;;257.08;;
11039;SDS011;5573;49.592;8.662;2023-02-18T08:40:19;282.00;;;266.58;;
11039;SDS011;5573;49.592;8.662;2023-02-18T08:42:47;277.17;;;262.00;;
11039;SDS011;5573;49.592;8.662;2023-02-18T08:45:14;272.20;;;257.42;;
11039;SDS011;5573;49.592;8.662;2023-02-18T08:47:42;294.23;;;277.77;;
11039;SDS011;5573;49.592;8.662;2023-02-18T08:50:30;278.15;;;262.98;;
11039;SDS011;5573;49.592;8.662;2023-02-18T08:52:58;298.92;;;282.33;;
11039;SDS011;5573;49.592;8.662;2023-02-18T08:55:30;283.65;;;267.80;;
11039;SDS011;5573;49.592;8.662;2023-02-18T08:57:58;288.58;;;272.67;;
11039;SDS011;5573;49.592;8.662;2023-02-18T09:00:26;287.23;;;271.33;;
11039;SDS011;5573;49.592;8.662;2023-02-18T09:02:54;294.08;;;277.98;;
11039;SDS011;5573;49.592;8.662;2023-02-18T09:05:22;283.48;;;268.00;;
11039;SDS011;5573;49.592;8.662;2023-02-18T09:07:49;295.77;;;279.52;;
11039;SDS011;5573;49.592;8.662;2023-02-18T09:10:17;301.50;;;284.80;;
11039;SDS011;5573;49.592;8.662;2023-02-18T09:12:46;285.73;;;270.50;;
11039;SDS011;5573;49.592;8.662;2023-02-18T09:15:14;291.83;;;275.48;;
11039;SDS011;5573;49.592;8.662;2023-02-18T09:17:42;294.95;;;278.77;;
11039;SDS011;5573;49.592;8.662;2023-02-18T09:20:10;295.17;;;279.08;;
11039;SDS011;5573;49.592;8.662;2023-02-18T09:22:38;292.17;;;276.02;;
11039;SDS011;5573;49.592;8.662;2023-02-18T09:25:06;307.95;;;290.95;;
11039;SDS011;5573;49.592;8.662;2023-02-18T09:27:34;299.13;;;282.60;;
11039;SDS011;5573;49.592;8.662;2023-02-18T09:30:04;295.02;;;278.80;;
11039;SDS011;5573;49.592;8.662;2023-02-18T09:32:32;288.38;;;272.65;;
11039;SDS011;5573;49.592;8.662;2023-02-18T09:35:01;294.17;;;277.73;;
11039;SDS011;5573;49.592;8.662;2023-02-18T09:37:29;297.23;;;280.63;;
11039;SDS011;5573;49.592;8.662;2023-02-18T09:39:57;274.17;;;258.88;;
11039;SDS011;5573;49.592;8.662;2023-02-18T09:42:27;285.17;;;269.25;;
11039;SDS011;5573;49.592;8.662;2023-02-18T09:44:59;277.83;;;262.48;;
11039;SDS011;5573;49.592;8.662;2023-02-18T09:47:32;295.65;;;279.40;;
11039;SDS011;5573;49.592;8.662;2023-02-18T09:50:04;285.88;;;270.08;;
11039;SDS011;5573;49.592;8.662;2023-02-18T09:52:35;293.17;;;276.67;;
11039;SDS011;5573;49.592;8.662;2023-02-18T09:55:18;274.25;;;259.25;;
11039;SDS011;5573;49.592;8.662;2023-02-18T09:57:49;269.27;;;254.07;;
11039;SDS011;5573;49.592;8.662;2023-02-18T10:00:20;302.67;;;285.80;;
11039;SDS011;5573;49.592;8.662;2023-02-18T10:02:56;299.40;;;282.75;;
11039;SDS011;5573;49.592;8.662;2023-02-18T10:05:26;270.20;;;255.35;;
11039;SDS011;5573;49.592;8.662;2023-02-18T10:07:57;288.33;;;272.27;;
11039;SDS011;5573;49.592;8.662;2023-02-18T10:10:32;294.63;;;278.20;;
11039;SDS011;5573;49.592;8.662;2023-02-18T10:13:05;284.48;;;268.75;;
11039;SDS011;5573;49.592;8.662;2023-02-18T10:15:39;274.38;;;259.23;;
11039;SDS011;5573;49.592;8.662;2023-02-18T10:18:14;289.48;;;273.35;;
11039;SDS011;5573;49.592;8.662;2023-02-18T10:20:48;266.15;;;251.57;;
11039;SDS011;5573;49.592;8.662;2023-02-18T10:23:18;320.83;;;302.58;;
11039;SDS011;5573;49.592;8.662;2023-02-18T10:25:47;306.77;;;289.65;;
11039;SDS011;5573;49.592;8.662;2023-02-18T10:28:17;293.73;;;277.63;;
11039;SDS011;5573;49.592;8.662;2023-02-18T10:30:50;316.80;;;299.55;;
11039;SDS011;5573;49.592;8.662;2023-02-18T10:33:30;325.67;;;307.60;;
11039;SDS011;5573;49.592;8.662;2023-02-18T10:36:02;319.10;;;301.35;;
11039;SDS011;5573;49.592;8.662;2023-02-18T10:38:40;285.27;;;269.30;;
11039;SDS011;5573;49.592;8.662;2023-02-18T10:41:18;309.23;;;292.10;;
11039;SDS011;5573;49.592;8.662;2023-02-18T10:43:53;317.08;;;299.27;;
11039;SDS011;5573;49.592;8.662;2023-02-18T10:46:31;298.35;;;281.55;;
11039;SDS011;5573;49.592;8.662;2023-02-18T10:49:08;309.00;;;291.48;;
11039;SDS011;5573;49.592;8.662;2023-02-18T10:51:55;305.55;;;289.10;;
11039;SDS011;5573;49.592;8.662;2023-02-18T10:54:26;321.45;;;304.13;;
11039;SDS011;5573;49.592;8.662;2023-02-18T10:57:14;308.90;;;292.00;;
11039;SDS011;5573;49.592;8.662;2023-02-18T10:59:53;326.83;;;308.73;;
11039;SDS011;5573;49.592;8.662;2023-02-18T11:02:23;347.20;;;328.27;;
11039;SDS011;5573;49.592;8.662;2023-02-18T11:04:57;338.92;;;320.52;;
11039;SDS011;5573;49.592;8.662;2023-02-18T11:07:29;335.92;;;317.20;;
11039;SDS011;5573;49.592;8.662;2023-02-18T11:09:59;313.67;;;296.63;;
11039;SDS011;5573;49.592;8.662;2023-02-18T11:12:40;332.02;;;313.92;;
11039;SDS011;5573;49.592;8.662;2023-02-18T11:15:16;328.83;;;310.92;;
11039;SDS011;5573;49.592;8.662;2023-02-18T11:17:46;329.00;;;310.85;;
11039;SDS011;5573;49.592;8.662;2023-02-18T11:20:31;342.08;;;323.25;;
11039;SDS011;5573;49.592;8.662;2023-02-18T11:23:17;328.48;;;310.67;;
11039;SDS011;5573;49.592;8.662;2023-02-18T11:25:54;335.95;;;317.33;;
11039;SDS011;5573;49.592;8.662;2023-02-18T11:28:28;322.98;;;305.40;;
11039;SDS011;5573;49.592;8.662;2023-02-18T11:31:08;321.92;;;304.33;;
11039;SDS011;5573;49.592;8.662;2023-02-18T11:33:43;338.83;;;320.48;;
11039;SDS011;5573;49.592;8.662;2023-02-18T11:36:18;336.92;;;318.50;;
11039;SDS011;5573;49.592;8.662;2023-02-18T11:38:51;347.02;;;328.05;;
11039;SDS011;5573;49.592;8.662;2023-02-18T11:41:21;338.50;;;320.13;;
11039;SDS011;5573;49.592;8.662;2023-02-18T11:43:57;326.75;;;308.90;;
11039;SDS011;5573;49.592;8.662;2023-02-18T11:46:26;348.63;;;329.08;;
11039;SDS011;5573;49.592;8.662;2023-02-18T11:48:55;320.83;;;303.35;;
11039;SDS011;5573;49.592;8.662;2023-02-18T11:51:25;331.13;;;313.08;;
11039;SDS011;5573;49.592;8.662;2023-02-18T11:53:55;335.80;;;317.38;;
11039;SDS011;5573;49.592;8.662;2023-02-18T11:56:26;332.42;;;313.92;;
11039;SDS011;5573;49.592;8.662;2023-02-18T11:58:56;318.25;;;300.92;;
11039;SDS011;5573;49.592;8.662;2023-02-18T12:01:29;330.48;;;312.73;;
11039;SDS011;5573;49.592;8.662;2023-02-18T12:04:04;353.00;;;333.75;;
11039;SDS011;5573;49.592;8.662;2023-02-18T12:06:40;328.85;;;311.30;;
11039;SDS011;5573;49.592;8.662;2023-02-18T12:09:22;323.23;;;306.13;;
11039;SDS011;5573;49.592;8.662;2023-02-18T12:11:55;336.90;;;318.70;;
11039;SDS011;5573;49.592;8.662;2023-02-18T12:14:25;317.45;;;300.27;;
11039;SDS011;5573;49.592;8.662;2023-02-18T12:17:13;331.52;;;313.73;;
11039;SDS011;5573;49.592;8.662;2023-02-18T12:19:59;320.30;;;303.35;;
11039;SDS011;5573;49.592;8.662;2023-02-18T12:22:41;319.88;;;302.75;;
11039;SDS011;5573;49.592;8.662;2023-02-18T12:25:19;305.10;;;289.15;;
11039;SDS011;5573;49.592;8.662;2023-02-18T12:27:56;314.48;;;297.70;;
11039;SDS011;5573;49.592;8.662;2023-02-18T12:30:38;309.58;;;293.13;;
11039;SDS011;5573;49.592;8.662;2023-02-18T12:33:23;293.90;;;278.25;;
11039;SDS011;5573;49.592;8.662;2023-02-18T12:35:59;269.15;;;254.85;;
11039;SDS011;5573;49.592;8.662;2023-02-18T12:38:44;280.67;;;265.83;;
11039;SDS011;5573;49.592;8.662;2023-02-18T12:41:37;278.48;;;263.65;;
11039;SDS011;5573;49.592;8.662;2023-02-18T12:44:22;295.50;;;279.98;;
11039;SDS011;5573;49.592;8.662;2023-02-18T12:47:05;270.73;;;256.45;;
11039;SDS011;5573;49.592;8.662;2023-02-18T12:52:41;269.30;;;255.07;;
11039;SDS011;5573;49.592;8.662;2023-02-18T12:55:33;276.40;;;261.70;;
11039;SDS011;5573;49.592;8.662;2023-02-18T12:58:13;294.38;;;278.75;;
11039;SDS011;5573;49.592;8.662;2023-02-18T13:06:54;274.30;;;259.55;;
11039;SDS011;5573;49.592;8.662;2023-02-18T13:09:32;279.25;;;264.30;;
11039;SDS011;5573;49.592;8.662;2023-02-18T13:12:16;276.45;;;261.45;;
11039;SDS011;5573;49.592;8.662;2023-02-18T13:14:52;293.90;;;277.92;;
11039;SDS011;5573;49.592;8.662;2023-02-18T13:17:27;269.77;;;255.40;;
11039;SDS011;5573;49.592;8.662;2023-02-18T13:20:02;273.63;;;258.88;;
11039;SDS011;5573;49.592;8.662;2023-02-18T13:22:33;295.65;;;279.80;;
11039;SDS011;5573;49.592;8.662;2023-02-18T13:25:01;296.80;;;280.65;;
11039;SDS011;5573;49.592;8.662;2023-02-18T13:27:32;294.60;;;278.63;;
11039;SDS011;5573;49.592;8.662;2023-02-18T13:30:14;275.60;;;260.77;;
11039;SDS011;5573;49.592;8.662;2023-02-18T13:32:47;269.95;;;255.70;;
11039;SDS011;5573;49.592;8.662;2023-02-18T13:35:24;283.38;;;268.27;;
11039;SDS011;5573;49.592;8.662;2023-02-18T13:38:01;295.35;;;279.67;;
11039;SDS011;5573;49.592;8.662;2023-02-18T13:40:38;276.25;;;261.48;;
11039;SDS011;5573;49.592;8.662;2023-02-18T13:43:18;276.55;;;261.52;;
11039;SDS011;5573;49.592;8.662;2023-02-18T13:46:01;282.83;;;267.80;;
11039;SDS011;5573;49.592;8.662;2023-02-18T13:48:35;287.80;;;272.55;;
11039;SDS011;5573;49.592;8.662;2023-02-18T13:51:10;271.40;;;256.92;;
11039;SDS011;5573;49.592;8.662;2023-02-18T13:53:40;284.33;;;269.20;;
11039;SDS011;5573;49.592;8.662;2023-02-18T13:56:09;284.88;;;269.65;;
11039;SDS011;5573;49.592;8.662;2023-02-18T13:58:49;284.20;;;268.83;;
11039;SDS011;5573;49.592;8.662;2023-02-18T14:01:21;298.75;;;282.55;;
11039;SDS011;5573;49.592;8.662;2023-02-18T14:03:52;287.92;;;272.40;;
11039;SDS011;5573;49.592;8.662;2023-02-18T14:06:23;278.75;;;263.67;;
11039;SDS011;5573;49.592;8.662;2023-02-18T14:09:01;282.40;;;267.27;;
11039;SDS011;5573;49.592;8.662;2023-02-18T14:11:54;292.52;;;276.67;;
11039;SDS011;5573;49.592;8.662;2023-02-18T14:14:32;279.88;;;264.55;;
11039;SDS011;5573;49.592;8.662;2023-02-18T14:17:13;269.98;;;255.07;;
11039;SDS011;5573;49.592;8.662;2023-02-18T14:26:21;285.25;;;269.95;;
11039;SDS011;5573;49.592;8.662;2023-02-18T14:28:54;292.95;;;277.30;;
11039;SDS011;5573;49.592;8.662;2023-02-18T14:31:35;272.45;;;257.88;;
11039;SDS011;5573;49.592;8.662;2023-02-18T14:34:28;288.15;;;272.73;;
11039;SDS011;5573;49.592;8.662;2023-02-18T14:37:27;273.33;;;258.67;;
11039;SDS011;5573;49.592;8.662;2023-02-18T14:40:09;277.33;;;262.27;;
11039;SDS011;5573;49.592;8.662;2023-02-18T14:42:48;275.52;;;260.60;;
11039;SDS011;5573;49.592;8.662;2023-02-18T14:45:30;278.83;;;263.85;;
11039;SDS011;5573;49.592;8.662;2023-02-18T14:48:14;287.55;;;272.05;;
11039;SDS011;5573;49.592;8.662;2023-02-18T14:50:51;289.52;;;273.77;;
11039;SDS011;5573;49.592;8.662;2023-02-18T14:53:22;294.67;;;278.95;;
11039;SDS011;5573;49.592;8.662;2023-02-18T14:55:53;287.52;;;272.13;;
11039;SDS011;5573;49.592;8.662;2023-02-18T14:58:27;304.52;;;288.17;;
11039;SDS011;5573;49.592;8.662;2023-02-18T15:00:59;303.20;;;287.10;;